EG99N LTBS-EDDF
Flight info
| Callsign | EG99N |
|---|---|
| Flight time | 2h 47m |
| Altitude | 42000 |
| Route | KEKIK UN127 RIKSO UN128 FSK UL608 DISOR DCT LONTA UL608 DOLEV DCT BEDOX DCT SIMBA DCT AKINI T159 PETIX DCT SPESA SPESA5C |
| Aircraft | C750/M-SBDE3FGHRWXY/S |
Departure
| Time | 2026-05-08 11:19 |
|---|---|
| Airport | Dalaman International Airport (LTBS) |
Arrival
| Time | 2026-05-08 14:07 |
|---|---|
| Airport | Frankfurt Main Airport (EDDF) |
| Time | Latitude | Longitude | Altitude | Speed | Heading |
|---|---|---|---|---|---|
| 2026-05-08 10:55 | 36.71736 | 28.79052 | 9 ft | 0 kts | 105° |
| 2026-05-08 11:09 | 36.71736 | 28.79049 | 9 ft | 1 kts | 105° |
| 2026-05-08 11:09 | 36.71741 | 28.79028 | 9 ft | 3 kts | 105° |
| 2026-05-08 11:09 | 36.71746 | 28.79004 | 9 ft | 3 kts | 105° |
| 2026-05-08 11:09 | 36.71751 | 28.78981 | 9 ft | 3 kts | 94° |
| 2026-05-08 11:10 | 36.71750 | 28.78966 | 9 ft | 3 kts | 28° |
| 2026-05-08 11:10 | 36.71738 | 28.78959 | 9 ft | 1 kts | 15° |
| 2026-05-08 11:10 | 36.71725 | 28.78955 | 9 ft | 1 kts | 15° |
| 2026-05-08 11:10 | 36.71724 | 28.78955 | 9 ft | 0 kts | 15° |
| 2026-05-08 11:13 | 36.71737 | 28.78959 | 9 ft | 4 kts | 15° |
| 2026-05-08 11:13 | 36.71745 | 28.78962 | 9 ft | 3 kts | 15° |
| 2026-05-08 11:14 | 36.71756 | 28.78966 | 9 ft | 3 kts | 15° |
| 2026-05-08 11:14 | 36.71771 | 28.78971 | 9 ft | 2 kts | 15° |
| 2026-05-08 11:14 | 36.71791 | 28.78978 | 9 ft | 5 kts | 16° |
| 2026-05-08 11:14 | 36.71838 | 28.78994 | 9 ft | 9 kts | 15° |
| 2026-05-08 11:15 | 36.71892 | 28.79029 | 9 ft | 8 kts | 63° |
| 2026-05-08 11:15 | 36.71889 | 28.79090 | 9 ft | 7 kts | 102° |
| 2026-05-08 11:15 | 36.71880 | 28.79140 | 9 ft | 5 kts | 103° |
| 2026-05-08 11:15 | 36.71873 | 28.79181 | 9 ft | 5 kts | 100° |
| 2026-05-08 11:16 | 36.71890 | 28.79225 | 9 ft | 7 kts | 44° |
| 2026-05-08 11:16 | 36.71941 | 28.79251 | 9 ft | 9 kts | 15° |
| 2026-05-08 11:16 | 36.72010 | 28.79275 | 9 ft | 11 kts | 15° |
| 2026-05-08 11:16 | 36.72095 | 28.79303 | 8 ft | 14 kts | 15° |
| 2026-05-08 11:17 | 36.72150 | 28.79358 | 8 ft | 10 kts | 120° |
| 2026-05-08 11:17 | 36.72106 | 28.79391 | 8 ft | 6 kts | 165° |
| 2026-05-08 11:17 | 36.72071 | 28.79404 | 8 ft | 4 kts | 162° |
| 2026-05-08 11:17 | 36.72039 | 28.79416 | 9 ft | 6 kts | 165° |
| 2026-05-08 11:18 | 36.71994 | 28.79426 | 9 ft | 7 kts | 171° |
| 2026-05-08 11:18 | 36.71938 | 28.79437 | 9 ft | 9 kts | 172° |
| 2026-05-08 11:18 | 36.71865 | 28.79441 | 9 ft | 20 kts | 189° |
| 2026-05-08 11:18 | 36.71399 | 28.79283 | 9 ft | 118 kts | 195° |
| 2026-05-08 11:19 | 36.70455 | 28.78953 | 182 ft | 152 kts | 196° |
| 2026-05-08 11:19 | 36.69365 | 28.78582 | 613 ft | 175 kts | 195° |
| 2026-05-08 11:19 | 36.68153 | 28.78174 | 621 ft | 175 kts | 195° |
| 2026-05-08 11:19 | 36.67012 | 28.77785 | 633 ft | 168 kts | 195° |
| 2026-05-08 11:20 | 36.65879 | 28.77397 | 581 ft | 168 kts | 195° |
| 2026-05-08 11:20 | 36.64771 | 28.77020 | 673 ft | 161 kts | 196° |
| 2026-05-08 11:20 | 36.63708 | 28.76530 | 1031 ft | 163 kts | 213° |
| 2026-05-08 11:20 | 36.62919 | 28.75503 | 1484 ft | 171 kts | 238° |
| 2026-05-08 11:21 | 36.62556 | 28.74073 | 1978 ft | 183 kts | 266° |
| 2026-05-08 11:21 | 36.62770 | 28.72417 | 2503 ft | 202 kts | 285° |
| 2026-05-08 11:21 | 36.63173 | 28.70649 | 3089 ft | 222 kts | 285° |
| 2026-05-08 11:21 | 36.63589 | 28.68733 | 3661 ft | 242 kts | 284° |
| 2026-05-08 11:22 | 36.64046 | 28.66638 | 4213 ft | 259 kts | 284° |
| 2026-05-08 11:22 | 36.64523 | 28.64477 | 5167 ft | 261 kts | 285° |
| 2026-05-08 11:22 | 36.65011 | 28.62271 | 5971 ft | 267 kts | 285° |
| 2026-05-08 11:22 | 36.65665 | 28.60096 | 6777 ft | 271 kts | 298° |
| 2026-05-08 11:23 | 36.66804 | 28.58222 | 7679 ft | 273 kts | 314° |
| 2026-05-08 11:23 | 36.68333 | 28.56794 | 8618 ft | 278 kts | 328° |
| 2026-05-08 11:23 | 36.70002 | 28.55557 | 9526 ft | 280 kts | 327° |
| 2026-05-08 11:23 | 36.71594 | 28.54129 | 10287 ft | 287 kts | 321° |
| 2026-05-08 11:24 | 36.73182 | 28.52447 | 10441 ft | 313 kts | 318° |
| 2026-05-08 11:24 | 36.74922 | 28.50622 | 10469 ft | 340 kts | 320° |
| 2026-05-08 11:24 | 36.76826 | 28.48778 | 10946 ft | 348 kts | 323° |
| 2026-05-08 11:24 | 36.78930 | 28.47270 | 11634 ft | 351 kts | 335° |
| 2026-05-08 11:25 | 36.81262 | 28.46305 | 12277 ft | 356 kts | 343° |
| 2026-05-08 11:25 | 36.83693 | 28.45584 | 12907 ft | 360 kts | 345° |
| 2026-05-08 11:25 | 36.86129 | 28.44782 | 13524 ft | 364 kts | 342° |
| 2026-05-08 11:25 | 36.88562 | 28.43828 | 14156 ft | 367 kts | 341° |
| 2026-05-08 11:26 | 36.91018 | 28.42882 | 14700 ft | 371 kts | 342° |
| 2026-05-08 11:26 | 36.93480 | 28.42014 | 15290 ft | 374 kts | 342° |
| 2026-05-08 11:26 | 36.95987 | 28.41136 | 15855 ft | 376 kts | 342° |
| 2026-05-08 11:26 | 36.98503 | 28.40209 | 16487 ft | 377 kts | 341° |
| 2026-05-08 11:27 | 37.01027 | 28.39262 | 17106 ft | 380 kts | 341° |
| 2026-05-08 11:27 | 37.03576 | 28.38334 | 17746 ft | 383 kts | 341° |
| 2026-05-08 11:27 | 37.06133 | 28.37366 | 18371 ft | 385 kts | 338° |
| 2026-05-08 11:27 | 37.08536 | 28.35910 | 18907 ft | 384 kts | 326° |
| 2026-05-08 11:28 | 37.10645 | 28.33890 | 19552 ft | 381 kts | 316° |
| 2026-05-08 11:28 | 37.12599 | 28.31649 | 20212 ft | 381 kts | 315° |
| 2026-05-08 11:28 | 37.14580 | 28.29435 | 20878 ft | 383 kts | 317° |
| 2026-05-08 11:28 | 37.16619 | 28.27280 | 21508 ft | 385 kts | 318° |
| 2026-05-08 11:29 | 37.18670 | 28.25114 | 22175 ft | 386 kts | 317° |
| 2026-05-08 11:29 | 37.20700 | 28.22911 | 22868 ft | 385 kts | 317° |
| 2026-05-08 11:29 | 37.22731 | 28.20696 | 23487 ft | 388 kts | 317° |
| 2026-05-08 11:29 | 37.24786 | 28.18482 | 24045 ft | 390 kts | 317° |
| 2026-05-08 11:30 | 37.26858 | 28.16259 | 24542 ft | 393 kts | 317° |
| 2026-05-08 11:30 | 37.28934 | 28.14014 | 25050 ft | 395 kts | 317° |
| 2026-05-08 11:30 | 37.31019 | 28.11750 | 25559 ft | 397 kts | 317° |
| 2026-05-08 11:30 | 37.33117 | 28.09465 | 26058 ft | 400 kts | 316° |
| 2026-05-08 11:31 | 37.35221 | 28.07167 | 26548 ft | 402 kts | 316° |
| 2026-05-08 11:31 | 37.37341 | 28.04852 | 26999 ft | 405 kts | 316° |
| 2026-05-08 11:31 | 37.39474 | 28.02524 | 27488 ft | 407 kts | 316° |
| 2026-05-08 11:31 | 37.41619 | 28.00181 | 27949 ft | 410 kts | 316° |
| 2026-05-08 11:32 | 37.43779 | 27.97817 | 28401 ft | 413 kts | 315° |
| 2026-05-08 11:32 | 37.45919 | 27.95472 | 28847 ft | 415 kts | 315° |
| 2026-05-08 11:32 | 37.48104 | 27.93079 | 29314 ft | 417 kts | 315° |
| 2026-05-08 11:32 | 37.50299 | 27.90673 | 29770 ft | 420 kts | 315° |
| 2026-05-08 11:33 | 37.52512 | 27.88246 | 30196 ft | 423 kts | 315° |
| 2026-05-08 11:33 | 37.54729 | 27.85809 | 30603 ft | 424 kts | 315° |
| 2026-05-08 11:33 | 37.56957 | 27.83359 | 31024 ft | 425 kts | 314° |
| 2026-05-08 11:33 | 37.59181 | 27.80914 | 31580 ft | 422 kts | 314° |
| 2026-05-08 11:34 | 37.61382 | 27.78494 | 32197 ft | 418 kts | 314° |
| 2026-05-08 11:34 | 37.63561 | 27.76093 | 32807 ft | 414 kts | 314° |
| 2026-05-08 11:34 | 37.65714 | 27.73717 | 33392 ft | 410 kts | 314° |
| 2026-05-08 11:34 | 37.67853 | 27.71355 | 33987 ft | 407 kts | 313° |
| 2026-05-08 11:35 | 37.69975 | 27.69012 | 34537 ft | 403 kts | 314° |
| 2026-05-08 11:35 | 37.72082 | 27.66681 | 35014 ft | 402 kts | 314° |
| 2026-05-08 11:35 | 37.74182 | 27.64356 | 35543 ft | 400 kts | 314° |
| 2026-05-08 11:35 | 37.76272 | 27.62043 | 36047 ft | 399 kts | 314° |
| 2026-05-08 11:36 | 37.78354 | 27.59737 | 36556 ft | 397 kts | 314° |
| 2026-05-08 11:36 | 37.80427 | 27.57438 | 37063 ft | 396 kts | 314° |
| 2026-05-08 11:36 | 37.82494 | 27.55144 | 37574 ft | 394 kts | 314° |
| 2026-05-08 11:36 | 37.84550 | 27.52861 | 38084 ft | 393 kts | 314° |
| 2026-05-08 11:37 | 37.86599 | 27.50583 | 38586 ft | 392 kts | 315° |
| 2026-05-08 11:37 | 37.88634 | 27.48319 | 39021 ft | 391 kts | 315° |
| 2026-05-08 11:37 | 37.90685 | 27.46049 | 39292 ft | 393 kts | 315° |
| 2026-05-08 11:37 | 37.92766 | 27.43783 | 39557 ft | 395 kts | 315° |
| 2026-05-08 11:38 | 37.94856 | 27.41504 | 39867 ft | 397 kts | 315° |
| 2026-05-08 11:38 | 37.96944 | 27.39208 | 40161 ft | 399 kts | 315° |
| 2026-05-08 11:38 | 37.99041 | 27.36894 | 40449 ft | 401 kts | 315° |
| 2026-05-08 11:38 | 38.01150 | 27.34576 | 40733 ft | 402 kts | 315° |
| 2026-05-08 11:39 | 38.03271 | 27.32247 | 41051 ft | 404 kts | 315° |
| 2026-05-08 11:39 | 38.05397 | 27.29904 | 41345 ft | 406 kts | 315° |
| 2026-05-08 11:39 | 38.07530 | 27.27550 | 41627 ft | 407 kts | 315° |
| 2026-05-08 11:39 | 38.09672 | 27.25187 | 41915 ft | 409 kts | 315° |
| 2026-05-08 11:40 | 38.11836 | 27.22798 | 41960 ft | 416 kts | 315° |
| 2026-05-08 11:40 | 38.16286 | 27.17876 | 41981 ft | 431 kts | 315° |
| 2026-05-08 11:41 | 38.20097 | 27.13657 | 41979 ft | 443 kts | 315° |
| 2026-05-08 11:41 | 38.24806 | 27.08435 | 41986 ft | 454 kts | 315° |
| 2026-05-08 11:42 | 38.29561 | 27.03156 | 41979 ft | 453 kts | 315° |
| 2026-05-08 11:42 | 38.31931 | 27.00518 | 42150 ft | 454 kts | 315° |
| 2026-05-08 11:42 | 38.34321 | 26.97866 | 42149 ft | 457 kts | 315° |
| 2026-05-08 11:43 | 38.39149 | 26.92567 | 42137 ft | 458 kts | 315° |
| 2026-05-08 11:43 | 38.43958 | 26.87235 | 42137 ft | 458 kts | 315° |
| 2026-05-08 11:44 | 38.48798 | 26.81881 | 42135 ft | 461 kts | 315° |
| 2026-05-08 11:44 | 38.53634 | 26.76513 | 42136 ft | 461 kts | 315° |
| 2026-05-08 11:45 | 38.58468 | 26.71139 | 42136 ft | 461 kts | 315° |
| 2026-05-08 11:45 | 38.63313 | 26.65741 | 42146 ft | 462 kts | 315° |
| 2026-05-08 11:46 | 38.68159 | 26.60335 | 42147 ft | 462 kts | 315° |
| 2026-05-08 11:46 | 38.72975 | 26.54951 | 42146 ft | 464 kts | 315° |
| 2026-05-08 11:47 | 38.77846 | 26.49494 | 42152 ft | 465 kts | 315° |
| 2026-05-08 11:47 | 38.82709 | 26.44037 | 42154 ft | 465 kts | 315° |
| 2026-05-08 11:48 | 38.87694 | 26.38725 | 42161 ft | 466 kts | 316° |
| 2026-05-08 11:48 | 38.92695 | 26.33404 | 42156 ft | 467 kts | 316° |
| 2026-05-08 11:49 | 38.97702 | 26.28087 | 42152 ft | 467 kts | 316° |
| 2026-05-08 11:49 | 39.02709 | 26.22747 | 42154 ft | 470 kts | 316° |
| 2026-05-08 11:50 | 39.07739 | 26.17383 | 42157 ft | 470 kts | 316° |
| 2026-05-08 11:50 | 39.12762 | 26.12009 | 42154 ft | 469 kts | 316° |
| 2026-05-08 11:51 | 39.17792 | 26.06619 | 42150 ft | 471 kts | 316° |
| 2026-05-08 11:51 | 39.22815 | 26.01228 | 42148 ft | 470 kts | 316° |
| 2026-05-08 11:52 | 39.27839 | 25.95823 | 42147 ft | 470 kts | 316° |
| 2026-05-08 11:52 | 39.32827 | 25.90362 | 42149 ft | 470 kts | 315° |
| 2026-05-08 11:53 | 39.37749 | 25.84812 | 42144 ft | 470 kts | 315° |
| 2026-05-08 11:53 | 39.42684 | 25.79345 | 42144 ft | 470 kts | 315° |
| 2026-05-08 11:54 | 39.47623 | 25.73792 | 42137 ft | 472 kts | 315° |
| 2026-05-08 11:54 | 39.52590 | 25.68241 | 42134 ft | 472 kts | 315° |
| 2026-05-08 11:55 | 39.57547 | 25.62664 | 42136 ft | 473 kts | 315° |
| 2026-05-08 11:55 | 39.62523 | 25.57071 | 42132 ft | 473 kts | 315° |
| 2026-05-08 11:56 | 39.67479 | 25.51479 | 42138 ft | 473 kts | 315° |
| 2026-05-08 11:56 | 39.72447 | 25.45868 | 42136 ft | 474 kts | 315° |
| 2026-05-08 11:57 | 39.77420 | 25.40239 | 42135 ft | 474 kts | 315° |
| 2026-05-08 11:57 | 39.82388 | 25.34604 | 42135 ft | 474 kts | 315° |
| 2026-05-08 11:58 | 39.87368 | 25.28943 | 42109 ft | 477 kts | 315° |
| 2026-05-08 11:58 | 39.92198 | 25.23060 | 42090 ft | 472 kts | 307° |
| 2026-05-08 11:59 | 39.97934 | 25.12706 | 42108 ft | 470 kts | 302° |
| 2026-05-08 11:59 | 40.01708 | 25.05761 | 42113 ft | 469 kts | 302° |
| 2026-05-08 12:00 | 40.05470 | 24.98785 | 42113 ft | 472 kts | 302° |
| 2026-05-08 12:00 | 40.09227 | 24.91830 | 42122 ft | 471 kts | 302° |
| 2026-05-08 12:01 | 40.12997 | 24.84819 | 42122 ft | 472 kts | 302° |
| 2026-05-08 12:01 | 40.16767 | 24.77802 | 42122 ft | 472 kts | 302° |
| 2026-05-08 12:02 | 40.20530 | 24.70776 | 42122 ft | 472 kts | 302° |
| 2026-05-08 12:02 | 40.24291 | 24.63741 | 42122 ft | 472 kts | 302° |
| 2026-05-08 12:03 | 40.28049 | 24.56697 | 42123 ft | 472 kts | 301° |
| 2026-05-08 12:03 | 40.31803 | 24.49643 | 42123 ft | 472 kts | 301° |
| 2026-05-08 12:04 | 40.35553 | 24.42580 | 42129 ft | 472 kts | 301° |
| 2026-05-08 12:04 | 40.39300 | 24.35507 | 42126 ft | 474 kts | 301° |
| 2026-05-08 12:05 | 40.43055 | 24.28405 | 42123 ft | 473 kts | 301° |
| 2026-05-08 12:05 | 40.46802 | 24.21298 | 42123 ft | 473 kts | 301° |
| 2026-05-08 12:06 | 40.50546 | 24.14183 | 42123 ft | 474 kts | 301° |
| 2026-05-08 12:06 | 40.54289 | 24.07055 | 42124 ft | 474 kts | 301° |
| 2026-05-08 12:07 | 40.58036 | 23.99901 | 42114 ft | 475 kts | 301° |
| 2026-05-08 12:07 | 40.61776 | 23.92743 | 42116 ft | 475 kts | 301° |
| 2026-05-08 12:08 | 40.65486 | 23.85620 | 42120 ft | 475 kts | 301° |
| 2026-05-08 12:08 | 40.69218 | 23.78443 | 42117 ft | 475 kts | 301° |
| 2026-05-08 12:09 | 40.72948 | 23.71249 | 42108 ft | 476 kts | 301° |
| 2026-05-08 12:09 | 40.76673 | 23.64052 | 42107 ft | 475 kts | 301° |
| 2026-05-08 12:10 | 40.80393 | 23.56846 | 42099 ft | 475 kts | 301° |
| 2026-05-08 12:10 | 40.84111 | 23.49627 | 42099 ft | 475 kts | 301° |
| 2026-05-08 12:11 | 40.87825 | 23.42400 | 42115 ft | 475 kts | 301° |
| 2026-05-08 12:11 | 40.91544 | 23.35145 | 42104 ft | 476 kts | 301° |
| 2026-05-08 12:12 | 40.95254 | 23.27891 | 42103 ft | 476 kts | 301° |
| 2026-05-08 12:12 | 40.98961 | 23.20627 | 42101 ft | 476 kts | 301° |
| 2026-05-08 12:13 | 41.02669 | 23.13346 | 42096 ft | 476 kts | 301° |
| 2026-05-08 12:13 | 41.06372 | 23.06056 | 42098 ft | 478 kts | 301° |
| 2026-05-08 12:14 | 41.10121 | 22.98782 | 42094 ft | 480 kts | 304° |
| 2026-05-08 12:14 | 41.14445 | 22.92016 | 42103 ft | 481 kts | 307° |
| 2026-05-08 12:15 | 41.18751 | 22.85220 | 42107 ft | 482 kts | 306° |
| 2026-05-08 12:15 | 41.23075 | 22.78441 | 42092 ft | 480 kts | 307° |
| 2026-05-08 12:16 | 41.27516 | 22.71757 | 42095 ft | 483 kts | 308° |
| 2026-05-08 12:16 | 41.32037 | 22.65154 | 42091 ft | 483 kts | 308° |
| 2026-05-08 12:17 | 41.36554 | 22.58529 | 42084 ft | 483 kts | 308° |
| 2026-05-08 12:17 | 41.41063 | 22.51913 | 42083 ft | 482 kts | 308° |
| 2026-05-08 12:18 | 41.45568 | 22.45279 | 42088 ft | 483 kts | 308° |
| 2026-05-08 12:18 | 41.50080 | 22.38626 | 42080 ft | 483 kts | 308° |
| 2026-05-08 12:19 | 41.54515 | 22.32077 | 42134 ft | 457 kts | 308° |
| 2026-05-08 12:19 | 41.56604 | 22.28988 | 42894 ft | 440 kts | 308° |
| 2026-05-08 12:19 | 41.58637 | 22.25964 | 43350 ft | 437 kts | 308° |
| 2026-05-08 12:20 | 41.60667 | 22.22942 | 43691 ft | 437 kts | 308° |
| 2026-05-08 12:20 | 41.62698 | 22.19928 | 44057 ft | 436 kts | 308° |
| 2026-05-08 12:20 | 41.64728 | 22.16916 | 44419 ft | 436 kts | 308° |
| 2026-05-08 12:20 | 41.66756 | 22.13897 | 44720 ft | 437 kts | 308° |
| 2026-05-08 12:21 | 41.68786 | 22.10869 | 44973 ft | 438 kts | 308° |
| 2026-05-08 12:21 | 41.70821 | 22.07833 | 45229 ft | 439 kts | 308° |
| 2026-05-08 12:21 | 41.72860 | 22.04792 | 45514 ft | 438 kts | 308° |
| 2026-05-08 12:21 | 41.74896 | 22.01750 | 45845 ft | 438 kts | 308° |
| 2026-05-08 12:22 | 41.76931 | 21.98704 | 46198 ft | 438 kts | 308° |
| 2026-05-08 12:22 | 41.78934 | 21.95703 | 46430 ft | 439 kts | 308° |
| 2026-05-08 12:22 | 41.80968 | 21.92656 | 46660 ft | 439 kts | 308° |
| 2026-05-08 12:22 | 41.83000 | 21.89607 | 46882 ft | 439 kts | 308° |
| 2026-05-08 12:23 | 41.85058 | 21.86516 | 47080 ft | 439 kts | 308° |
| 2026-05-08 12:23 | 41.87062 | 21.83502 | 47272 ft | 439 kts | 308° |
| 2026-05-08 12:23 | 41.89118 | 21.80407 | 47469 ft | 439 kts | 308° |
| 2026-05-08 12:23 | 41.91147 | 21.77349 | 47654 ft | 439 kts | 308° |
| 2026-05-08 12:24 | 41.93153 | 21.74322 | 47810 ft | 441 kts | 308° |
| 2026-05-08 12:24 | 41.95190 | 21.71247 | 47985 ft | 441 kts | 308° |
| 2026-05-08 12:24 | 41.99301 | 21.65027 | 48029 ft | 449 kts | 308° |
| 2026-05-08 12:25 | 42.02787 | 21.59746 | 48033 ft | 458 kts | 308° |
| 2026-05-08 12:25 | 42.07776 | 21.52171 | 48060 ft | 467 kts | 308° |
| 2026-05-08 12:26 | 42.12102 | 21.45587 | 48062 ft | 469 kts | 308° |
| 2026-05-08 12:26 | 42.16421 | 21.38997 | 48063 ft | 468 kts | 308° |
| 2026-05-08 12:27 | 42.19932 | 21.33437 | 48081 ft | 469 kts | 306° |
| 2026-05-08 12:27 | 42.24148 | 21.26710 | 48060 ft | 469 kts | 307° |
| 2026-05-08 12:28 | 42.29068 | 21.18914 | 48062 ft | 469 kts | 306° |
| 2026-05-08 12:28 | 42.32602 | 21.13265 | 48077 ft | 470 kts | 307° |
| 2026-05-08 12:29 | 42.36844 | 21.06510 | 48075 ft | 471 kts | 307° |
| 2026-05-08 12:29 | 42.41067 | 20.99739 | 48080 ft | 471 kts | 307° |
| 2026-05-08 12:30 | 42.45284 | 20.92983 | 48078 ft | 470 kts | 307° |
| 2026-05-08 12:30 | 42.49471 | 20.86246 | 48069 ft | 471 kts | 306° |
| 2026-05-08 12:31 | 42.53687 | 20.79455 | 48081 ft | 471 kts | 307° |
| 2026-05-08 12:31 | 42.57906 | 20.72640 | 48056 ft | 471 kts | 306° |
| 2026-05-08 12:32 | 42.62121 | 20.65816 | 48056 ft | 471 kts | 306° |
| 2026-05-08 12:32 | 42.66335 | 20.58979 | 48045 ft | 471 kts | 306° |
| 2026-05-08 12:33 | 42.70544 | 20.52133 | 48046 ft | 471 kts | 306° |
| 2026-05-08 12:33 | 42.74716 | 20.45332 | 48048 ft | 472 kts | 306° |
| 2026-05-08 12:34 | 42.78956 | 20.38401 | 48036 ft | 480 kts | 306° |
| 2026-05-08 12:34 | 42.83287 | 20.31399 | 48019 ft | 488 kts | 310° |
| 2026-05-08 12:35 | 42.88373 | 20.25144 | 48028 ft | 495 kts | 315° |
| 2026-05-08 12:35 | 42.93554 | 20.18894 | 48020 ft | 499 kts | 314° |
| 2026-05-08 12:36 | 42.98761 | 20.12586 | 48040 ft | 501 kts | 315° |
| 2026-05-08 12:36 | 43.03999 | 20.06251 | 47998 ft | 504 kts | 315° |
| 2026-05-08 12:37 | 43.09242 | 19.99865 | 47996 ft | 506 kts | 315° |
| 2026-05-08 12:37 | 43.14511 | 19.93458 | 48000 ft | 507 kts | 315° |
| 2026-05-08 12:38 | 43.19788 | 19.87006 | 47994 ft | 509 kts | 315° |
| 2026-05-08 12:38 | 43.25083 | 19.80531 | 48004 ft | 510 kts | 315° |
| 2026-05-08 12:39 | 43.30387 | 19.74020 | 47992 ft | 512 kts | 315° |
| 2026-05-08 12:39 | 43.35663 | 19.67533 | 47997 ft | 512 kts | 315° |
| 2026-05-08 12:40 | 43.40970 | 19.60987 | 47992 ft | 512 kts | 315° |
| 2026-05-08 12:40 | 43.46274 | 19.54433 | 48009 ft | 513 kts | 314° |
| 2026-05-08 12:41 | 43.51582 | 19.47855 | 48005 ft | 513 kts | 314° |
| 2026-05-08 12:41 | 43.56889 | 19.41263 | 48011 ft | 514 kts | 314° |
| 2026-05-08 12:42 | 43.62201 | 19.34650 | 47999 ft | 514 kts | 314° |
| 2026-05-08 12:42 | 43.67506 | 19.28026 | 48019 ft | 514 kts | 314° |
| 2026-05-08 12:43 | 43.72810 | 19.21390 | 48017 ft | 514 kts | 314° |
| 2026-05-08 12:43 | 43.78106 | 19.14745 | 48026 ft | 514 kts | 314° |
| 2026-05-08 12:44 | 43.83400 | 19.08087 | 48028 ft | 514 kts | 314° |
| 2026-05-08 12:44 | 43.88691 | 19.01416 | 48034 ft | 514 kts | 314° |
| 2026-05-08 12:45 | 43.93975 | 18.94736 | 48037 ft | 514 kts | 314° |
| 2026-05-08 12:45 | 43.99255 | 18.88046 | 48041 ft | 513 kts | 314° |
| 2026-05-08 12:46 | 44.04490 | 18.81395 | 48043 ft | 513 kts | 314° |
| 2026-05-08 12:46 | 44.09758 | 18.74686 | 48043 ft | 513 kts | 314° |
| 2026-05-08 12:47 | 44.15020 | 18.67967 | 48048 ft | 513 kts | 314° |
| 2026-05-08 12:47 | 44.20274 | 18.61242 | 48050 ft | 513 kts | 314° |
| 2026-05-08 12:48 | 44.25527 | 18.54501 | 48055 ft | 512 kts | 314° |
| 2026-05-08 12:48 | 44.30767 | 18.47759 | 48050 ft | 513 kts | 314° |
| 2026-05-08 12:49 | 44.36006 | 18.41003 | 48051 ft | 513 kts | 314° |
| 2026-05-08 12:49 | 44.41245 | 18.34227 | 48041 ft | 513 kts | 314° |
| 2026-05-08 12:50 | 44.46477 | 18.27445 | 48045 ft | 513 kts | 314° |
| 2026-05-08 12:50 | 44.51669 | 18.20696 | 48048 ft | 512 kts | 314° |
| 2026-05-08 12:51 | 44.59498 | 18.10488 | 48045 ft | 512 kts | 314° |
| 2026-05-08 12:52 | 44.64710 | 18.03670 | 48048 ft | 512 kts | 314° |
| 2026-05-08 12:52 | 44.72525 | 17.93414 | 48047 ft | 511 kts | 314° |
| 2026-05-08 12:53 | 44.77726 | 17.86566 | 48046 ft | 511 kts | 314° |
| 2026-05-08 12:53 | 44.82917 | 17.79714 | 48045 ft | 511 kts | 314° |
| 2026-05-08 12:54 | 44.88102 | 17.72852 | 48056 ft | 511 kts | 314° |
| 2026-05-08 12:54 | 44.93255 | 17.66015 | 48055 ft | 511 kts | 314° |
| 2026-05-08 12:55 | 44.98433 | 17.59127 | 48056 ft | 512 kts | 314° |
| 2026-05-08 12:55 | 45.03618 | 17.52210 | 48051 ft | 512 kts | 314° |
| 2026-05-08 12:56 | 45.08795 | 17.45288 | 48054 ft | 512 kts | 314° |
| 2026-05-08 12:56 | 45.13970 | 17.38350 | 48058 ft | 512 kts | 314° |
| 2026-05-08 12:57 | 45.19134 | 17.31408 | 48055 ft | 512 kts | 314° |
| 2026-05-08 12:57 | 45.24267 | 17.24489 | 48055 ft | 512 kts | 314° |
| 2026-05-08 12:58 | 45.29423 | 17.17521 | 48049 ft | 512 kts | 314° |
| 2026-05-08 12:58 | 45.34582 | 17.10531 | 48053 ft | 512 kts | 314° |
| 2026-05-08 12:59 | 45.39733 | 17.03533 | 48055 ft | 512 kts | 314° |
| 2026-05-08 12:59 | 45.44881 | 16.96521 | 48055 ft | 512 kts | 314° |
| 2026-05-08 13:00 | 45.50019 | 16.89504 | 48063 ft | 511 kts | 314° |
| 2026-05-08 13:00 | 45.55152 | 16.82475 | 48064 ft | 511 kts | 314° |
| 2026-05-08 13:01 | 45.60274 | 16.75441 | 48052 ft | 511 kts | 314° |
| 2026-05-08 13:01 | 45.65398 | 16.68387 | 48053 ft | 511 kts | 314° |
| 2026-05-08 13:02 | 45.70517 | 16.61319 | 48059 ft | 511 kts | 313° |
| 2026-05-08 13:02 | 45.75593 | 16.54294 | 48061 ft | 511 kts | 313° |
| 2026-05-08 13:03 | 45.80696 | 16.47211 | 48059 ft | 511 kts | 313° |
| 2026-05-08 13:03 | 45.85801 | 16.40108 | 48062 ft | 511 kts | 313° |
| 2026-05-08 13:04 | 45.90891 | 16.33005 | 48069 ft | 510 kts | 313° |
| 2026-05-08 13:04 | 45.95984 | 16.25880 | 48069 ft | 510 kts | 313° |
| 2026-05-08 13:05 | 46.01066 | 16.18750 | 48061 ft | 510 kts | 313° |
| 2026-05-08 13:05 | 46.06141 | 16.11611 | 48059 ft | 510 kts | 313° |
| 2026-05-08 13:06 | 46.11177 | 16.04507 | 48054 ft | 510 kts | 313° |
| 2026-05-08 13:06 | 46.16250 | 15.97333 | 48054 ft | 510 kts | 313° |
| 2026-05-08 13:07 | 46.21309 | 15.90157 | 48073 ft | 510 kts | 313° |
| 2026-05-08 13:07 | 46.26361 | 15.82974 | 48135 ft | 509 kts | 313° |
| 2026-05-08 13:08 | 46.31531 | 15.75957 | 48142 ft | 509 kts | 314° |
| 2026-05-08 13:08 | 46.36671 | 15.68930 | 48138 ft | 509 kts | 314° |
| 2026-05-08 13:09 | 46.41840 | 15.61899 | 48179 ft | 509 kts | 314° |
| 2026-05-08 13:09 | 46.46992 | 15.54834 | 48193 ft | 509 kts | 314° |
| 2026-05-08 13:10 | 46.52140 | 15.47780 | 48217 ft | 509 kts | 314° |
| 2026-05-08 13:10 | 46.57285 | 15.40694 | 48230 ft | 509 kts | 314° |
| 2026-05-08 13:11 | 46.62424 | 15.33607 | 48240 ft | 509 kts | 314° |
| 2026-05-08 13:11 | 46.67524 | 15.26550 | 48255 ft | 509 kts | 314° |
| 2026-05-08 13:12 | 46.72655 | 15.19432 | 48282 ft | 509 kts | 314° |
| 2026-05-08 13:12 | 46.77783 | 15.12299 | 48284 ft | 509 kts | 314° |
| 2026-05-08 13:13 | 46.82904 | 15.05154 | 48284 ft | 509 kts | 314° |
| 2026-05-08 13:13 | 46.88026 | 14.97991 | 48299 ft | 509 kts | 314° |
| 2026-05-08 13:14 | 46.92278 | 14.92027 | 48332 ft | 509 kts | 314° |
| 2026-05-08 13:14 | 46.97388 | 14.84841 | 48354 ft | 509 kts | 314° |
| 2026-05-08 13:15 | 47.02496 | 14.77640 | 48385 ft | 509 kts | 314° |
| 2026-05-08 13:15 | 47.07604 | 14.70418 | 48421 ft | 510 kts | 314° |
| 2026-05-08 13:16 | 47.12710 | 14.63177 | 48470 ft | 510 kts | 314° |
| 2026-05-08 13:16 | 47.17808 | 14.55929 | 48461 ft | 510 kts | 314° |
| 2026-05-08 13:17 | 47.22907 | 14.48658 | 48458 ft | 511 kts | 314° |
| 2026-05-08 13:17 | 47.28007 | 14.41366 | 48456 ft | 511 kts | 314° |
| 2026-05-08 13:18 | 47.33101 | 14.34060 | 48437 ft | 511 kts | 313° |
| 2026-05-08 13:18 | 47.38189 | 14.26745 | 48409 ft | 511 kts | 313° |
| 2026-05-08 13:19 | 47.43242 | 14.19456 | 48426 ft | 511 kts | 313° |
| 2026-05-08 13:19 | 47.48329 | 14.12100 | 48449 ft | 511 kts | 313° |
| 2026-05-08 13:20 | 47.53407 | 14.04734 | 48463 ft | 512 kts | 313° |
| 2026-05-08 13:20 | 47.58486 | 13.97347 | 48478 ft | 512 kts | 313° |
| 2026-05-08 13:21 | 47.63558 | 13.89947 | 48504 ft | 512 kts | 313° |
| 2026-05-08 13:21 | 47.68631 | 13.82526 | 48525 ft | 512 kts | 313° |
| 2026-05-08 13:22 | 47.73695 | 13.75096 | 48548 ft | 512 kts | 313° |
| 2026-05-08 13:22 | 47.78757 | 13.67647 | 48566 ft | 512 kts | 313° |
| 2026-05-08 13:23 | 47.83817 | 13.60180 | 48599 ft | 512 kts | 313° |
| 2026-05-08 13:23 | 47.88868 | 13.52704 | 48614 ft | 512 kts | 313° |
| 2026-05-08 13:24 | 47.93916 | 13.45212 | 48620 ft | 512 kts | 313° |
| 2026-05-08 13:24 | 47.98926 | 13.37754 | 48625 ft | 512 kts | 313° |
| 2026-05-08 13:25 | 48.03968 | 13.30225 | 48643 ft | 512 kts | 313° |
| 2026-05-08 13:25 | 48.09002 | 13.22688 | 48669 ft | 512 kts | 312° |
| 2026-05-08 13:26 | 48.14031 | 13.15134 | 48684 ft | 512 kts | 312° |
| 2026-05-08 13:26 | 48.19053 | 13.07570 | 48699 ft | 512 kts | 312° |
| 2026-05-08 13:27 | 48.24022 | 12.99923 | 48689 ft | 511 kts | 309° |
| 2026-05-08 13:27 | 48.28724 | 12.91916 | 48713 ft | 511 kts | 309° |
| 2026-05-08 13:28 | 48.33450 | 12.83926 | 48722 ft | 511 kts | 309° |
| 2026-05-08 13:28 | 48.38151 | 12.75919 | 48739 ft | 511 kts | 309° |
| 2026-05-08 13:29 | 48.42824 | 12.67945 | 48744 ft | 511 kts | 309° |
| 2026-05-08 13:29 | 48.47525 | 12.59902 | 48759 ft | 511 kts | 309° |
| 2026-05-08 13:30 | 48.52211 | 12.51852 | 48793 ft | 510 kts | 309° |
| 2026-05-08 13:30 | 48.54521 | 12.47886 | 48771 ft | 492 kts | 309° |
| 2026-05-08 13:30 | 48.56737 | 12.44071 | 48644 ft | 475 kts | 308° |
| 2026-05-08 13:31 | 48.58874 | 12.40377 | 48453 ft | 460 kts | 308° |
| 2026-05-08 13:31 | 48.60948 | 12.36787 | 48221 ft | 448 kts | 308° |
| 2026-05-08 13:31 | 48.62978 | 12.33276 | 47977 ft | 439 kts | 308° |
| 2026-05-08 13:31 | 48.64971 | 12.29823 | 47739 ft | 434 kts | 308° |
| 2026-05-08 13:32 | 48.66960 | 12.26368 | 47505 ft | 436 kts | 308° |
| 2026-05-08 13:32 | 48.68965 | 12.22881 | 47298 ft | 442 kts | 308° |
| 2026-05-08 13:32 | 48.70998 | 12.19345 | 47142 ft | 448 kts | 308° |
| 2026-05-08 13:32 | 48.73050 | 12.15774 | 47011 ft | 451 kts | 308° |
| 2026-05-08 13:33 | 48.75006 | 12.12069 | 46863 ft | 450 kts | 301° |
| 2026-05-08 13:33 | 48.76572 | 12.07984 | 46720 ft | 447 kts | 295° |
| 2026-05-08 13:33 | 48.78001 | 12.03797 | 46617 ft | 445 kts | 295° |
| 2026-05-08 13:33 | 48.79440 | 11.99639 | 46498 ft | 446 kts | 296° |
| 2026-05-08 13:34 | 48.80927 | 11.95445 | 45896 ft | 455 kts | 296° |
| 2026-05-08 13:34 | 48.82422 | 11.91217 | 45288 ft | 456 kts | 296° |
| 2026-05-08 13:34 | 48.83898 | 11.86967 | 44686 ft | 454 kts | 295° |
| 2026-05-08 13:34 | 48.85389 | 11.82778 | 44048 ft | 450 kts | 297° |
| 2026-05-08 13:35 | 48.86938 | 11.78668 | 43455 ft | 446 kts | 297° |
| 2026-05-08 13:35 | 48.88496 | 11.74621 | 42890 ft | 443 kts | 298° |
| 2026-05-08 13:35 | 48.90045 | 11.70586 | 42346 ft | 441 kts | 297° |
| 2026-05-08 13:35 | 48.91571 | 11.66550 | 41839 ft | 440 kts | 297° |
| 2026-05-08 13:36 | 48.93095 | 11.62509 | 41355 ft | 442 kts | 297° |
| 2026-05-08 13:36 | 48.94634 | 11.58453 | 40928 ft | 444 kts | 297° |
| 2026-05-08 13:36 | 48.96160 | 11.54431 | 40514 ft | 445 kts | 297° |
| 2026-05-08 13:36 | 48.97702 | 11.50349 | 40117 ft | 445 kts | 297° |
| 2026-05-08 13:37 | 48.99240 | 11.46261 | 39744 ft | 445 kts | 297° |
| 2026-05-08 13:37 | 49.00782 | 11.42164 | 39381 ft | 445 kts | 297° |
| 2026-05-08 13:37 | 49.02319 | 11.38079 | 39031 ft | 445 kts | 297° |
| 2026-05-08 13:37 | 49.03857 | 11.33983 | 38682 ft | 445 kts | 297° |
| 2026-05-08 13:38 | 49.05389 | 11.29893 | 38264 ft | 445 kts | 297° |
| 2026-05-08 13:38 | 49.06923 | 11.25791 | 37873 ft | 445 kts | 297° |
| 2026-05-08 13:38 | 49.08457 | 11.21685 | 37490 ft | 445 kts | 297° |
| 2026-05-08 13:38 | 49.09990 | 11.17576 | 37130 ft | 446 kts | 297° |
| 2026-05-08 13:39 | 49.11520 | 11.13467 | 36792 ft | 446 kts | 297° |
| 2026-05-08 13:39 | 49.13050 | 11.09349 | 36469 ft | 446 kts | 297° |
| 2026-05-08 13:39 | 49.14581 | 11.05226 | 36157 ft | 447 kts | 297° |
| 2026-05-08 13:39 | 49.16115 | 11.01086 | 35887 ft | 448 kts | 297° |
| 2026-05-08 13:40 | 49.17647 | 10.96946 | 35593 ft | 448 kts | 297° |
| 2026-05-08 13:40 | 49.19161 | 10.92853 | 35314 ft | 425 kts | 297° |
| 2026-05-08 13:40 | 49.20584 | 10.89009 | 34993 ft | 420 kts | 296° |
| 2026-05-08 13:40 | 49.22047 | 10.85006 | 34693 ft | 440 kts | 296° |
| 2026-05-08 13:41 | 49.23558 | 10.80886 | 34428 ft | 446 kts | 297° |
| 2026-05-08 13:41 | 49.25084 | 10.76752 | 34188 ft | 448 kts | 297° |
| 2026-05-08 13:41 | 49.26618 | 10.72579 | 33910 ft | 450 kts | 297° |
| 2026-05-08 13:41 | 49.28145 | 10.68400 | 33642 ft | 451 kts | 297° |
| 2026-05-08 13:42 | 49.29679 | 10.64193 | 33370 ft | 452 kts | 297° |
| 2026-05-08 13:42 | 49.31193 | 10.60046 | 33104 ft | 452 kts | 297° |
| 2026-05-08 13:42 | 49.32727 | 10.55838 | 32856 ft | 452 kts | 297° |
| 2026-05-08 13:42 | 49.34261 | 10.51619 | 32612 ft | 453 kts | 297° |
| 2026-05-08 13:43 | 49.35796 | 10.47403 | 32380 ft | 453 kts | 297° |
| 2026-05-08 13:43 | 49.37541 | 10.43361 | 31994 ft | 457 kts | 303° |
| 2026-05-08 13:43 | 49.39391 | 10.39373 | 31319 ft | 459 kts | 303° |
| 2026-05-08 13:43 | 49.41231 | 10.35385 | 30649 ft | 458 kts | 303° |
| 2026-05-08 13:44 | 49.43044 | 10.31381 | 29998 ft | 452 kts | 302° |
| 2026-05-08 13:44 | 49.44830 | 10.27429 | 29288 ft | 447 kts | 302° |
| 2026-05-08 13:44 | 49.46600 | 10.23546 | 28586 ft | 441 kts | 303° |
| 2026-05-08 13:44 | 49.48352 | 10.19705 | 27934 ft | 436 kts | 303° |
| 2026-05-08 13:45 | 49.50080 | 10.15892 | 27335 ft | 432 kts | 302° |
| 2026-05-08 13:45 | 49.51786 | 10.12111 | 26752 ft | 428 kts | 302° |
| 2026-05-08 13:45 | 49.53480 | 10.08363 | 26189 ft | 424 kts | 302° |
| 2026-05-08 13:45 | 49.55158 | 10.04651 | 25637 ft | 421 kts | 302° |
| 2026-05-08 13:46 | 49.56821 | 10.00964 | 25096 ft | 417 kts | 302° |
| 2026-05-08 13:46 | 49.58469 | 9.97299 | 24573 ft | 414 kts | 302° |
| 2026-05-08 13:46 | 49.60100 | 9.93669 | 24064 ft | 411 kts | 302° |
| 2026-05-08 13:46 | 49.61722 | 9.90055 | 23558 ft | 409 kts | 302° |
| 2026-05-08 13:47 | 49.63310 | 9.86511 | 22982 ft | 405 kts | 302° |
| 2026-05-08 13:47 | 49.64906 | 9.82945 | 22419 ft | 402 kts | 302° |
| 2026-05-08 13:47 | 49.66489 | 9.79403 | 21869 ft | 398 kts | 302° |
| 2026-05-08 13:47 | 49.68054 | 9.75898 | 21330 ft | 395 kts | 302° |
| 2026-05-08 13:48 | 49.69605 | 9.72418 | 20810 ft | 392 kts | 303° |
| 2026-05-08 13:48 | 49.71144 | 9.68960 | 20302 ft | 389 kts | 303° |
| 2026-05-08 13:48 | 49.72670 | 9.65527 | 19806 ft | 386 kts | 303° |
| 2026-05-08 13:48 | 49.74182 | 9.62124 | 19300 ft | 383 kts | 303° |
| 2026-05-08 13:49 | 49.75683 | 9.58737 | 18800 ft | 380 kts | 303° |
| 2026-05-08 13:49 | 49.77172 | 9.55373 | 18299 ft | 377 kts | 303° |
| 2026-05-08 13:49 | 49.78652 | 9.52027 | 17736 ft | 376 kts | 303° |
| 2026-05-08 13:49 | 49.80127 | 9.48686 | 17191 ft | 374 kts | 303° |
| 2026-05-08 13:50 | 49.81589 | 9.45375 | 16683 ft | 369 kts | 303° |
| 2026-05-08 13:50 | 49.83033 | 9.42097 | 16164 ft | 367 kts | 303° |
| 2026-05-08 13:50 | 49.84466 | 9.38838 | 15666 ft | 365 kts | 303° |
| 2026-05-08 13:50 | 49.85852 | 9.35625 | 15177 ft | 362 kts | 301° |
| 2026-05-08 13:51 | 49.86788 | 9.32028 | 14616 ft | 358 kts | 285° |
| 2026-05-08 13:51 | 49.87468 | 9.28316 | 14157 ft | 357 kts | 285° |
| 2026-05-08 13:51 | 49.88169 | 9.24632 | 13678 ft | 355 kts | 286° |
| 2026-05-08 13:51 | 49.88883 | 9.20981 | 13185 ft | 353 kts | 286° |
| 2026-05-08 13:52 | 49.89581 | 9.17346 | 12700 ft | 351 kts | 285° |
| 2026-05-08 13:52 | 49.90262 | 9.13731 | 12225 ft | 348 kts | 285° |
| 2026-05-08 13:52 | 49.90942 | 9.10135 | 11753 ft | 346 kts | 285° |
| 2026-05-08 13:52 | 49.91619 | 9.06582 | 11286 ft | 337 kts | 285° |
| 2026-05-08 13:53 | 49.92255 | 9.03238 | 11093 ft | 308 kts | 285° |
| 2026-05-08 13:53 | 49.92840 | 9.00170 | 11084 ft | 289 kts | 285° |
| 2026-05-08 13:53 | 49.93421 | 8.97133 | 11092 ft | 295 kts | 285° |
| 2026-05-08 13:53 | 49.94006 | 8.94067 | 11092 ft | 298 kts | 285° |
| 2026-05-08 13:54 | 49.94592 | 8.90989 | 11099 ft | 297 kts | 285° |
| 2026-05-08 13:54 | 49.95177 | 8.87914 | 11096 ft | 297 kts | 285° |
| 2026-05-08 13:54 | 49.95760 | 8.84840 | 11101 ft | 297 kts | 285° |
| 2026-05-08 13:54 | 49.96342 | 8.81764 | 11098 ft | 297 kts | 285° |
| 2026-05-08 13:55 | 49.96925 | 8.78686 | 11103 ft | 297 kts | 285° |
| 2026-05-08 13:55 | 49.97507 | 8.75606 | 11103 ft | 297 kts | 285° |
| 2026-05-08 13:55 | 49.97688 | 8.69358 | 11078 ft | 294 kts | 252° |
| 2026-05-08 13:56 | 49.96986 | 8.66369 | 11146 ft | 295 kts | 249° |
| 2026-05-08 13:56 | 49.96248 | 8.63394 | 11191 ft | 296 kts | 249° |
| 2026-05-08 13:56 | 49.95519 | 8.60381 | 10953 ft | 297 kts | 250° |
| 2026-05-08 13:56 | 49.94807 | 8.57384 | 10710 ft | 294 kts | 250° |
| 2026-05-08 13:57 | 49.94095 | 8.54423 | 10466 ft | 293 kts | 249° |
| 2026-05-08 13:57 | 49.93380 | 8.51472 | 10223 ft | 291 kts | 249° |
| 2026-05-08 13:57 | 49.92671 | 8.48541 | 9978 ft | 290 kts | 249° |
| 2026-05-08 13:57 | 49.91964 | 8.45614 | 9674 ft | 290 kts | 249° |
| 2026-05-08 13:58 | 49.91268 | 8.42720 | 9277 ft | 290 kts | 249° |
| 2026-05-08 13:58 | 49.90555 | 8.39753 | 8895 ft | 288 kts | 249° |
| 2026-05-08 13:58 | 49.89870 | 8.36890 | 8511 ft | 287 kts | 249° |
| 2026-05-08 13:58 | 49.89403 | 8.34933 | 8241 ft | 286 kts | 249° |
| 2026-05-08 13:59 | 49.88493 | 8.31107 | 7742 ft | 285 kts | 249° |
| 2026-05-08 13:59 | 49.87816 | 8.28231 | 7362 ft | 283 kts | 249° |
| 2026-05-08 13:59 | 49.87144 | 8.25365 | 6931 ft | 282 kts | 249° |
| 2026-05-08 13:59 | 49.86490 | 8.22559 | 6438 ft | 272 kts | 249° |
| 2026-05-08 14:00 | 49.86253 | 8.20637 | 5986 ft | 269 kts | 268° |
| 2026-05-08 14:00 | 49.86785 | 8.17938 | 5344 ft | 269 kts | 303° |
| 2026-05-08 14:00 | 49.88221 | 8.16198 | 4787 ft | 263 kts | 340° |
| 2026-05-08 14:00 | 49.89994 | 8.16134 | 4440 ft | 248 kts | 14° |
| 2026-05-08 14:01 | 49.91542 | 8.17033 | 4242 ft | 236 kts | 23° |
| 2026-05-08 14:01 | 49.93049 | 8.18032 | 4108 ft | 230 kts | 23° |
| 2026-05-08 14:01 | 49.94436 | 8.18952 | 4110 ft | 206 kts | 24° |
| 2026-05-08 14:01 | 49.95405 | 8.20427 | 3943 ft | 197 kts | 67° |
| 2026-05-08 14:02 | 49.95536 | 8.22488 | 3996 ft | 192 kts | 88° |
| 2026-05-08 14:02 | 49.95837 | 8.24556 | 4009 ft | 197 kts | 70° |
| 2026-05-08 14:02 | 49.96325 | 8.26561 | 3972 ft | 201 kts | 69° |
| 2026-05-08 14:02 | 49.96818 | 8.28614 | 3701 ft | 203 kts | 69° |
| 2026-05-08 14:03 | 49.97308 | 8.30658 | 3435 ft | 200 kts | 69° |
| 2026-05-08 14:03 | 49.97789 | 8.32671 | 3161 ft | 197 kts | 69° |
| 2026-05-08 14:03 | 49.98264 | 8.34655 | 2898 ft | 193 kts | 69° |
| 2026-05-08 14:03 | 49.98720 | 8.36561 | 2632 ft | 183 kts | 69° |
| 2026-05-08 14:04 | 49.99152 | 8.38368 | 2396 ft | 174 kts | 69° |
| 2026-05-08 14:04 | 49.99548 | 8.40034 | 2149 ft | 156 kts | 69° |
| 2026-05-08 14:04 | 49.99919 | 8.41581 | 1955 ft | 155 kts | 69° |
| 2026-05-08 14:04 | 50.00297 | 8.43162 | 1748 ft | 158 kts | 69° |
| 2026-05-08 14:05 | 50.00682 | 8.44772 | 1541 ft | 159 kts | 69° |
| 2026-05-08 14:05 | 50.01056 | 8.46339 | 1333 ft | 145 kts | 69° |
| 2026-05-08 14:05 | 50.01382 | 8.47706 | 1135 ft | 126 kts | 67° |
| 2026-05-08 14:05 | 50.01680 | 8.48957 | 966 ft | 120 kts | 67° |
| 2026-05-08 14:06 | 50.01969 | 8.50170 | 809 ft | 118 kts | 67° |
| 2026-05-08 14:06 | 50.02260 | 8.51380 | 647 ft | 120 kts | 66° |
| 2026-05-08 14:06 | 50.02549 | 8.52584 | 494 ft | 120 kts | 64° |
| 2026-05-08 14:06 | 50.02846 | 8.53797 | 352 ft | 117 kts | 66° |
| 2026-05-08 14:07 | 50.03073 | 8.54754 | 335 ft | 63 kts | 69° |
| 2026-05-08 14:07 | 50.03156 | 8.55086 | 339 ft | 14 kts | 73° |
| 2026-05-08 14:07 | 50.03192 | 8.55247 | 338 ft | 19 kts | 70° |
| 2026-05-08 14:07 | 50.03240 | 8.55489 | 339 ft | 27 kts | 80° |
| 2026-05-08 14:08 | 50.03239 | 8.55767 | 341 ft | 24 kts | 100° |
| 2026-05-08 14:08 | 50.03208 | 8.55903 | 345 ft | 13 kts | 151° |
| 2026-05-08 14:08 | 50.03145 | 8.55854 | 341 ft | 9 kts | 249° |
| 2026-05-08 14:08 | 50.03120 | 8.55750 | 340 ft | 11 kts | 249° |
| 2026-05-08 14:09 | 50.03092 | 8.55634 | 339 ft | 12 kts | 250° |
| 2026-05-08 14:09 | 50.03064 | 8.55514 | 338 ft | 12 kts | 249° |
| 2026-05-08 14:09 | 50.03037 | 8.55400 | 337 ft | 11 kts | 250° |
| 2026-05-08 14:09 | 50.03010 | 8.55286 | 335 ft | 11 kts | 250° |
| 2026-05-08 14:10 | 50.02982 | 8.55172 | 336 ft | 11 kts | 250° |
| 2026-05-08 14:10 | 50.02956 | 8.55062 | 335 ft | 11 kts | 250° |
| 2026-05-08 14:10 | 50.02930 | 8.54953 | 334 ft | 11 kts | 250° |
| 2026-05-08 14:10 | 50.02898 | 8.54840 | 334 ft | 10 kts | 226° |
| 2026-05-08 14:11 | 50.02830 | 8.54834 | 336 ft | 10 kts | 185° |
| 2026-05-08 14:11 | 50.02788 | 8.54752 | 338 ft | 11 kts | 250° |
| 2026-05-08 14:11 | 50.02757 | 8.54619 | 335 ft | 16 kts | 250° |
| 2026-05-08 14:11 | 50.02710 | 8.54424 | 336 ft | 22 kts | 250° |
| 2026-05-08 14:12 | 50.02666 | 8.54194 | 334 ft | 22 kts | 250° |
| 2026-05-08 14:12 | 50.02612 | 8.53966 | 330 ft | 23 kts | 250° |
| 2026-05-08 14:12 | 50.02557 | 8.53734 | 331 ft | 22 kts | 250° |
| 2026-05-08 14:12 | 50.02505 | 8.53525 | 332 ft | 20 kts | 250° |
| 2026-05-08 14:13 | 50.02458 | 8.53325 | 333 ft | 19 kts | 249° |
| 2026-05-08 14:13 | 50.02411 | 8.53127 | 330 ft | 19 kts | 250° |
| 2026-05-08 14:13 | 50.02364 | 8.52933 | 330 ft | 19 kts | 249° |
| 2026-05-08 14:13 | 50.02309 | 8.52830 | 332 ft | 11 kts | 186° |
| 2026-05-08 14:14 | 50.02242 | 8.52830 | 332 ft | 8 kts | 180° |
| 2026-05-08 14:14 | 50.02187 | 8.52830 | 331 ft | 8 kts | 180° |
| 2026-05-08 14:14 | 50.02146 | 8.52860 | 331 ft | 6 kts | 107° |
| 2026-05-08 14:14 | 50.02148 | 8.52929 | 332 ft | 6 kts | 85° |
| 2026-05-08 14:15 | 50.02151 | 8.52996 | 332 ft | 6 kts | 86° |
| 2026-05-08 14:15 | 50.02154 | 8.53064 | 330 ft | 6 kts | 86° |
| 2026-05-08 14:15 | 50.02162 | 8.53125 | 331 ft | 5 kts | 68° |
| 2026-05-08 14:15 | 50.02170 | 8.53158 | 328 ft | 0 kts | 69° |
| 2026-05-08 14:16 | 50.02172 | 8.53168 | 330 ft | 0 kts | 70° |